createdAt,value
2023-05-06T00:02:20.508Z,34.37
2023-05-06T00:04:48.863Z,34.42
2023-05-06T00:07:17.021Z,34.40
2023-05-06T00:09:46.423Z,34.39
2023-05-06T00:12:15.434Z,34.43
2023-05-06T00:14:43.645Z,34.44
2023-05-06T00:17:11.761Z,34.46
2023-05-06T00:19:39.844Z,34.41
2023-05-06T00:22:07.894Z,34.33
2023-05-06T00:24:35.879Z,34.33
2023-05-06T00:27:05.386Z,34.43
2023-05-06T00:29:33.464Z,34.44
2023-05-06T00:32:01.589Z,34.40
2023-05-06T00:34:29.682Z,34.56
2023-05-06T00:36:57.741Z,34.42
2023-05-06T00:39:26.866Z,34.40
2023-05-06T00:41:54.882Z,34.35
2023-05-06T00:44:24.305Z,34.43
2023-05-06T00:46:52.420Z,34.34
2023-05-06T00:49:21.020Z,34.35
2023-05-06T00:51:49.375Z,34.49
2023-05-06T00:54:17.681Z,34.32
2023-05-06T00:56:45.792Z,34.48
2023-05-06T00:59:13.894Z,34.43
2023-05-06T01:01:43.511Z,34.36
2023-05-06T01:04:11.596Z,34.43
2023-05-06T01:06:44.880Z,34.50
2023-05-06T01:09:21.986Z,34.25
2023-05-06T01:11:56.333Z,34.37
2023-05-06T01:14:31.754Z,34.34
2023-05-06T01:17:06.377Z,34.35
2023-05-06T01:19:41.928Z,34.40
2023-05-06T01:22:12.260Z,34.43
2023-05-06T01:24:43.503Z,34.35
2023-05-06T01:27:12.853Z,34.37
2023-05-06T01:29:43.442Z,34.44
2023-05-06T01:32:41.095Z,34.05
2023-05-06T01:35:18.226Z,34.46
2023-05-06T01:37:53.944Z,34.37
2023-05-06T01:40:27.490Z,34.50
2023-05-06T01:42:56.868Z,34.35
2023-05-06T01:45:29.565Z,34.40
2023-05-06T01:47:58.823Z,34.36
2023-05-06T01:50:27.498Z,34.46
2023-05-06T01:53:02.750Z,34.28
2023-05-06T01:55:32.311Z,34.40
2023-05-06T01:58:00.422Z,34.52
2023-05-06T02:00:28.503Z,34.42
2023-05-06T02:02:56.714Z,34.36
2023-05-06T02:05:24.944Z,34.30
2023-05-06T02:07:53.074Z,34.38
2023-05-06T02:10:21.127Z,34.42
2023-05-06T02:12:50.950Z,34.39
2023-05-06T02:15:19.357Z,34.37
2023-05-06T02:17:47.492Z,34.31
2023-05-06T02:20:15.611Z,34.47
2023-05-06T02:22:43.687Z,34.28
2023-05-06T02:25:11.827Z,34.36
2023-05-06T02:27:39.910Z,34.40
2023-05-06T02:30:10.229Z,34.33
2023-05-06T02:32:38.433Z,34.33
2023-05-06T02:35:07.780Z,34.40
2023-05-06T02:37:36.180Z,34.40
2023-05-06T02:40:06.485Z,34.28
2023-05-06T02:42:36.038Z,34.30
2023-05-06T02:45:04.437Z,34.42
2023-05-06T02:47:33.974Z,34.32
2023-05-06T02:50:02.069Z,34.34
2023-05-06T02:52:30.234Z,34.41
2023-05-06T02:54:58.340Z,34.31
2023-05-06T02:57:26.458Z,34.37
2023-05-06T02:59:54.550Z,34.28
2023-05-06T03:02:22.724Z,34.35
2023-05-06T03:04:52.283Z,34.41
2023-05-06T03:07:20.392Z,34.30
2023-05-06T03:09:48.434Z,34.33
2023-05-06T03:12:16.634Z,34.37
2023-05-06T03:14:44.688Z,34.33
2023-05-06T03:17:12.757Z,34.38
2023-05-06T03:19:40.821Z,34.33
2023-05-06T03:22:10.500Z,34.44
2023-05-06T03:24:38.598Z,34.43
2023-05-06T03:27:06.660Z,34.42
2023-05-06T03:29:34.736Z,34.38
2023-05-06T03:32:04.130Z,34.43
2023-05-06T03:34:32.309Z,34.42
2023-05-06T03:37:00.473Z,34.37
2023-05-06T03:39:29.971Z,34.59
2023-05-06T03:41:58.394Z,34.38
2023-05-06T03:44:26.483Z,34.41
2023-05-06T03:46:54.656Z,34.31
2023-05-06T03:49:22.775Z,34.32
2023-05-06T03:51:51.079Z,34.53
2023-05-06T03:54:19.546Z,34.44
2023-05-06T03:56:49.078Z,34.51
2023-05-06T03:59:17.160Z,34.62
2023-05-06T04:01:45.303Z,34.64
2023-05-06T04:04:13.432Z,34.70
2023-05-06T04:06:41.591Z,34.82
2023-05-06T04:09:09.787Z,34.80
2023-05-06T04:11:37.892Z,34.85
2023-05-06T04:14:07.351Z,34.95
2023-05-06T04:16:35.506Z,34.98
2023-05-06T04:19:06.359Z,35.02
2023-05-06T04:21:34.750Z,35.14
2023-05-06T04:24:03.015Z,35.14
2023-05-06T04:26:31.503Z,35.07
2023-05-06T04:28:59.563Z,35.12
2023-05-06T04:31:29.481Z,35.15
2023-05-06T04:33:57.662Z,35.01
2023-05-06T04:36:25.731Z,35.04
2023-05-06T04:38:53.830Z,34.99
2023-05-06T04:41:22.376Z,34.89
2023-05-06T04:43:50.790Z,35.01
2023-05-06T04:46:19.251Z,35.04
2023-05-06T04:48:48.851Z,34.94
2023-05-06T04:51:16.939Z,34.84
2023-05-06T04:53:44.976Z,34.89
2023-05-06T04:56:12.987Z,34.95
2023-05-06T04:58:41.043Z,34.88
2023-05-06T05:01:10.654Z,34.84
2023-05-06T05:03:38.721Z,34.89
2023-05-06T05:06:08.658Z,34.84
2023-05-06T05:08:36.666Z,34.77
2023-05-06T05:11:04.948Z,34.73
2023-05-06T05:13:33.012Z,34.70
2023-05-06T05:16:01.080Z,34.81
2023-05-06T05:18:29.957Z,34.81
2023-05-06T05:20:58.000Z,34.76
2023-05-06T05:23:27.435Z,34.73
2023-05-06T05:25:56.011Z,34.69
2023-05-06T05:28:24.010Z,34.71
2023-05-06T05:30:52.038Z,34.79
2023-05-06T05:33:20.240Z,34.79
2023-05-06T05:35:48.351Z,34.77
2023-05-06T05:38:16.705Z,34.83
2023-05-06T05:40:46.109Z,34.79
2023-05-06T05:43:14.134Z,34.80
2023-05-06T05:45:42.154Z,34.83
2023-05-06T05:48:10.181Z,34.67
2023-05-06T05:50:39.281Z,34.71
2023-05-06T05:53:07.441Z,34.69
2023-05-06T05:55:35.515Z,34.68
2023-05-06T05:58:04.977Z,34.65
2023-05-06T06:00:33.128Z,34.84
2023-05-06T06:03:01.599Z,34.80
2023-05-06T06:05:29.858Z,34.77
2023-05-06T06:07:57.993Z,34.52
2023-05-06T06:10:26.191Z,34.67
2023-05-06T06:12:54.398Z,34.66
2023-05-06T06:15:24.180Z,34.51
2023-05-06T06:17:54.669Z,34.64
2023-05-06T06:20:22.740Z,34.60
2023-05-06T06:22:50.837Z,34.56
2023-05-06T06:25:18.934Z,34.57
2023-05-06T06:27:47.016Z,34.56
2023-05-06T06:30:15.280Z,34.44
2023-05-06T06:32:51.775Z,34.33
2023-05-06T06:35:20.314Z,34.46
2023-05-06T06:37:48.728Z,34.36
2023-05-06T06:40:17.285Z,34.40
2023-05-06T06:42:46.044Z,34.46
2023-05-06T06:45:15.308Z,34.38
2023-05-06T06:47:43.446Z,34.39
2023-05-06T06:50:13.340Z,34.37
2023-05-06T06:52:41.437Z,34.48
2023-05-06T06:55:10.953Z,34.44
2023-05-06T06:57:41.279Z,34.42
2023-05-06T07:00:10.378Z,34.38
2023-05-06T07:02:38.598Z,34.28
2023-05-06T07:05:07.501Z,34.31
2023-05-06T07:07:37.025Z,34.33
2023-05-06T07:10:05.655Z,34.37
2023-05-06T07:12:34.849Z,34.50
2023-05-06T07:15:06.702Z,34.43
2023-05-06T07:17:35.029Z,34.44
2023-05-06T07:20:03.203Z,34.38
2023-05-06T07:22:31.436Z,34.36
2023-05-06T07:25:00.997Z,34.44
2023-05-06T07:27:30.464Z,34.34
2023-05-06T07:29:58.737Z,34.45
2023-05-06T07:32:26.895Z,34.37
2023-05-06T07:34:55.105Z,34.50
2023-05-06T07:37:23.382Z,34.36
2023-05-06T07:39:51.487Z,34.52
2023-05-06T07:42:23.651Z,34.41
2023-05-06T07:44:51.694Z,34.33
2023-05-06T07:47:31.825Z,34.26
2023-05-06T07:50:01.217Z,34.41
2023-05-06T07:52:29.514Z,34.29
2023-05-06T07:55:01.237Z,34.28
2023-05-06T07:57:31.397Z,34.23
2023-05-06T07:59:59.601Z,33.98
2023-05-06T08:02:28.315Z,34.05
2023-05-06T08:04:56.927Z,33.84
2023-05-06T08:07:27.584Z,33.92
2023-05-06T08:09:56.634Z,33.89
2023-05-06T08:12:24.744Z,34.06
2023-05-06T08:14:54.959Z,33.92
2023-05-06T08:17:23.102Z,34.02
2023-05-06T08:19:51.329Z,33.80
2023-05-06T08:22:19.414Z,34.15
2023-05-06T08:24:47.482Z,34.11
2023-05-06T08:27:15.567Z,34.04
2023-05-06T08:29:43.709Z,34.15
2023-05-06T08:32:14.073Z,34.19
2023-05-06T08:34:42.218Z,34.17
2023-05-06T08:37:10.314Z,34.22
2023-05-06T08:39:38.755Z,33.97
2023-05-06T08:42:07.321Z,34.09
2023-05-06T08:44:35.419Z,34.02
2023-05-06T08:47:03.656Z,34.11
2023-05-06T08:49:33.533Z,34.12
2023-05-06T08:52:07.171Z,34.07
2023-05-06T08:54:36.735Z,34.03
2023-05-06T08:57:07.370Z,34.06
2023-05-06T08:59:36.981Z,34.01
2023-05-06T09:02:05.555Z,33.93
2023-05-06T09:04:36.394Z,33.94
2023-05-06T09:07:04.542Z,34.06
2023-05-06T09:09:33.414Z,34.04
2023-05-06T09:12:03.072Z,34.00
2023-05-06T09:14:31.191Z,34.12
2023-05-06T09:16:59.687Z,34.08
2023-05-06T09:19:28.011Z,34.10
2023-05-06T09:21:57.580Z,34.18
2023-05-06T09:24:25.951Z,33.93
2023-05-06T09:26:55.327Z,34.16
2023-05-06T09:29:23.571Z,34.16
2023-05-06T09:31:52.742Z,34.32
2023-05-06T09:34:22.158Z,34.30
2023-05-06T09:36:53.696Z,34.14
2023-05-06T09:39:26.981Z,34.18
2023-05-06T09:41:56.542Z,34.27
2023-05-06T09:44:26.167Z,34.33
2023-05-06T09:46:54.330Z,34.26
2023-05-06T09:49:22.949Z,34.30
2023-05-06T09:51:51.818Z,34.37
2023-05-06T09:54:20.982Z,34.37
2023-05-06T09:56:51.884Z,34.38
2023-05-06T09:59:22.466Z,34.32
2023-05-06T10:01:52.287Z,34.37
2023-05-06T10:04:25.510Z,34.26
2023-05-06T10:06:57.752Z,34.43
2023-05-06T10:09:27.130Z,34.41
2023-05-06T10:11:57.367Z,34.39
2023-05-06T10:14:26.914Z,34.42
2023-05-06T10:16:56.299Z,34.42
2023-05-06T10:19:27.004Z,34.47
2023-05-06T10:21:59.082Z,34.46
2023-05-06T10:24:34.572Z,34.57
2023-05-06T10:27:06.834Z,34.29
2023-05-06T10:29:38.928Z,34.46
2023-05-06T10:32:11.014Z,34.40
2023-05-06T10:34:50.345Z,34.44
2023-05-06T10:37:18.486Z,34.46
2023-05-06T10:39:47.517Z,34.50
2023-05-06T10:42:19.560Z,34.34
2023-05-06T10:45:01.144Z,34.22
2023-05-06T10:47:29.307Z,34.42
2023-05-06T10:50:23.140Z,34.35
2023-05-06T10:52:53.479Z,34.42
2023-05-06T10:55:29.794Z,34.28
2023-05-06T10:58:02.831Z,34.41
2023-05-06T11:00:35.375Z,34.32
2023-05-06T11:03:05.067Z,34.34
2023-05-06T11:05:33.642Z,34.38
2023-05-06T11:08:11.575Z,34.15
2023-05-06T11:10:39.885Z,34.23
2023-05-06T11:13:26.584Z,34.00
2023-05-06T11:15:55.671Z,34.17
2023-05-06T11:18:50.904Z,33.90
2023-05-06T11:21:38.982Z,33.98
2023-05-06T11:24:11.959Z,34.37
2023-05-06T11:26:44.575Z,34.19
2023-05-06T11:29:17.296Z,34.08
2023-05-06T11:31:46.254Z,34.23
2023-05-06T11:34:20.204Z,34.20
2023-05-06T11:36:51.167Z,34.28
2023-05-06T11:39:19.254Z,34.27
2023-05-06T11:41:47.387Z,34.31
2023-05-06T11:44:27.523Z,34.11
2023-05-06T11:46:59.854Z,34.37
2023-05-06T11:49:28.679Z,34.11
2023-05-06T11:51:58.209Z,34.10
2023-05-06T11:54:28.233Z,34.49
2023-05-06T11:56:58.735Z,34.27
2023-05-06T11:59:33.255Z,34.22
2023-05-06T12:02:02.704Z,34.21
2023-05-06T12:04:39.174Z,34.25
2023-05-06T12:07:07.947Z,34.06
2023-05-06T12:09:37.292Z,34.20
2023-05-06T12:12:07.596Z,34.20
2023-05-06T12:14:38.231Z,34.22
2023-05-06T12:17:06.866Z,34.07
2023-05-06T12:19:35.224Z,34.26
2023-05-06T12:22:16.641Z,34.01
2023-05-06T12:25:04.979Z,34.03
2023-05-06T12:27:34.106Z,34.32
2023-05-06T12:30:05.491Z,34.18
2023-05-06T12:32:34.499Z,34.26
2023-05-06T12:35:06.035Z,34.16
2023-05-06T12:37:34.260Z,34.21
2023-05-06T12:40:02.464Z,34.16
2023-05-06T12:42:30.918Z,34.18
2023-05-06T12:44:59.392Z,34.17
2023-05-06T12:47:28.956Z,34.15
2023-05-06T12:49:59.511Z,34.15
2023-05-06T12:52:30.075Z,34.18
2023-05-06T12:54:58.688Z,34.25
2023-05-06T12:57:27.172Z,34.15
2023-05-06T12:59:56.521Z,34.32
2023-05-06T13:02:24.771Z,34.19
2023-05-06T13:04:54.419Z,34.21
2023-05-06T13:07:22.635Z,34.19
2023-05-06T13:09:50.864Z,34.26
2023-05-06T13:12:18.928Z,34.09
2023-05-06T13:14:47.061Z,34.27
2023-05-06T13:17:15.836Z,34.20
2023-05-06T13:19:44.077Z,34.31
2023-05-06T13:22:13.689Z,34.19
2023-05-06T13:24:41.837Z,34.30
2023-05-06T13:27:10.028Z,34.16
2023-05-06T13:29:38.370Z,34.14
2023-05-06T13:32:08.811Z,34.20
2023-05-06T13:34:37.279Z,34.23
2023-05-06T13:37:05.531Z,34.16
2023-05-06T13:39:35.120Z,34.09
2023-05-06T13:42:05.543Z,34.15
2023-05-06T13:44:35.910Z,34.00
2023-05-06T13:47:04.012Z,34.09
2023-05-06T13:49:32.309Z,34.09
2023-05-06T13:52:00.620Z,34.23
2023-05-06T13:54:28.754Z,34.34
2023-05-06T13:57:01.561Z,34.33
2023-05-06T13:59:29.718Z,34.35
2023-05-06T14:01:58.374Z,34.35
2023-05-06T14:04:26.584Z,34.27
2023-05-06T14:06:55.216Z,34.12
2023-05-06T14:09:23.331Z,34.22
2023-05-06T14:11:51.651Z,34.30
2023-05-06T14:14:21.218Z,34.19
2023-05-06T14:16:51.815Z,34.37
2023-05-06T14:19:21.029Z,34.32
2023-05-06T14:21:49.240Z,34.43
2023-05-06T14:24:17.373Z,34.33
2023-05-06T14:26:46.187Z,34.31
2023-05-06T14:29:14.442Z,34.40
2023-05-06T14:31:43.922Z,34.45
2023-05-06T14:34:12.565Z,34.38
2023-05-06T14:36:40.655Z,34.45
2023-05-06T14:39:08.775Z,34.39
2023-05-06T14:41:36.958Z,34.35
2023-05-06T14:44:05.518Z,34.45
2023-05-06T14:46:34.126Z,34.46
2023-05-06T14:49:03.793Z,34.45
2023-05-06T14:51:32.513Z,34.47
2023-05-06T14:54:00.602Z,34.46
2023-05-06T14:56:28.741Z,34.27
2023-05-06T14:58:58.656Z,34.51
2023-05-06T15:01:26.905Z,34.41
2023-05-06T15:03:55.048Z,34.48
2023-05-06T15:06:26.550Z,34.35
2023-05-06T15:08:54.853Z,34.32
2023-05-06T15:11:22.998Z,34.33
2023-05-06T15:13:51.118Z,34.31
2023-05-06T15:16:19.222Z,34.33
2023-05-06T15:18:47.402Z,34.46
2023-05-06T15:21:16.031Z,34.52
2023-05-06T15:23:47.600Z,34.50
2023-05-06T15:26:15.674Z,34.40
2023-05-06T15:28:43.806Z,34.48
2023-05-06T15:31:11.987Z,34.45
2023-05-06T15:33:40.242Z,34.50
2023-05-06T15:36:09.100Z,34.56
2023-05-06T15:39:02.194Z,34.40
2023-05-06T15:41:32.421Z,34.51
2023-05-06T15:44:01.820Z,34.55
2023-05-06T15:46:31.061Z,34.60
2023-05-06T15:49:21.045Z,34.56
2023-05-06T15:51:48.238Z,34.60
2023-05-06T15:54:19.433Z,34.55
2023-05-06T15:56:47.724Z,34.45
2023-05-06T15:59:16.378Z,34.57
2023-05-06T16:04:17.912Z,34.72
2023-05-06T16:06:46.100Z,34.63
2023-05-06T16:09:14.194Z,34.57
2023-05-06T16:11:43.757Z,34.58
2023-05-06T16:14:12.105Z,34.60
2023-05-06T16:16:40.274Z,34.73
2023-05-06T16:19:09.296Z,34.71
2023-05-06T16:21:37.724Z,34.68
2023-05-06T16:24:08.740Z,34.79
2023-05-06T16:26:37.154Z,34.67
2023-05-06T16:29:06.921Z,34.69
2023-05-06T16:31:35.646Z,34.69
2023-05-06T16:34:03.818Z,34.77
2023-05-06T16:36:32.101Z,34.65
2023-05-06T16:39:00.238Z,34.80
2023-05-06T16:41:28.495Z,34.56
2023-05-06T16:43:56.774Z,34.76
2023-05-06T16:46:26.406Z,34.81
2023-05-06T16:48:54.682Z,34.89
2023-05-06T16:51:23.148Z,34.90
2023-05-06T16:53:51.377Z,34.69
2023-05-06T16:56:19.699Z,34.79
2023-05-06T16:58:48.583Z,34.82
2023-05-06T17:01:16.656Z,34.71
2023-05-06T17:03:46.233Z,34.78
2023-05-06T17:06:16.005Z,34.97
2023-05-06T17:08:44.202Z,34.82
2023-05-06T17:11:12.290Z,34.76
2023-05-06T17:13:40.429Z,34.87
2023-05-06T17:16:09.131Z,35.08
2023-05-06T17:18:37.254Z,34.91
2023-05-06T17:21:09.425Z,34.99
2023-05-06T17:23:37.455Z,34.96
2023-05-06T17:29:05.052Z,34.82
2023-05-06T17:31:35.558Z,34.91
2023-05-06T17:34:04.030Z,35.09
2023-05-06T17:36:33.689Z,35.01
2023-05-06T17:39:07.884Z,35.05
2023-05-06T17:41:36.362Z,35.00
2023-05-06T17:44:04.488Z,35.05
2023-05-06T17:46:33.537Z,34.95
2023-05-06T17:49:02.114Z,34.90
2023-05-06T17:51:30.371Z,34.94
2023-05-06T17:54:00.434Z,34.90
2023-05-06T17:56:28.614Z,34.96
2023-05-06T17:59:02.695Z,34.96
2023-05-06T18:01:31.058Z,35.04
2023-05-06T18:03:59.614Z,34.99
2023-05-06T18:06:28.887Z,34.92
2023-05-06T18:08:57.032Z,35.11
2023-05-06T18:11:26.857Z,34.91
2023-05-06T18:13:55.163Z,34.98
2023-05-06T18:16:23.340Z,34.99
2023-05-06T18:18:51.543Z,34.98
2023-05-06T18:21:19.651Z,34.98
2023-05-06T18:23:48.527Z,35.12
2023-05-06T18:26:30.988Z,34.99
2023-05-06T18:29:04.893Z,35.08
2023-05-06T18:31:33.140Z,35.02
2023-05-06T18:34:01.313Z,35.06
2023-05-06T18:36:29.404Z,35.07
2023-05-06T18:38:57.489Z,35.00
2023-05-06T18:41:26.255Z,34.99
2023-05-06T18:43:54.403Z,35.09
2023-05-06T18:46:24.125Z,34.94
2023-05-06T18:48:52.209Z,35.09
2023-05-06T18:51:21.422Z,34.99
2023-05-06T18:53:49.529Z,35.14
2023-05-06T18:56:17.735Z,35.04
2023-05-06T18:58:46.049Z,34.97
2023-05-06T19:01:14.322Z,34.95
2023-05-06T19:03:44.236Z,35.06
2023-05-06T19:06:12.692Z,35.10
2023-05-06T19:08:41.019Z,35.09
2023-05-06T19:11:15.829Z,35.05
2023-05-06T19:13:45.047Z,34.94
2023-05-06T19:16:13.456Z,35.05
2023-05-06T19:18:43.247Z,35.10
2023-05-06T19:21:11.921Z,35.05
2023-05-06T19:23:40.365Z,35.22
2023-05-06T19:26:11.025Z,35.17
2023-05-06T19:28:40.659Z,35.03
2023-05-06T19:31:09.701Z,35.04
2023-05-06T19:33:39.372Z,35.16
2023-05-06T19:36:09.306Z,35.15
2023-05-06T19:38:37.545Z,35.00
2023-05-06T19:41:06.294Z,35.16
2023-05-06T19:43:34.418Z,35.14
2023-05-06T19:46:02.620Z,35.09
2023-05-06T19:48:31.149Z,35.18
2023-05-06T19:50:59.239Z,35.08
2023-05-06T19:53:28.723Z,34.96
2023-05-06T19:55:59.244Z,35.06
2023-05-06T19:58:27.311Z,35.09
2023-05-06T20:00:55.487Z,35.02
2023-05-06T20:03:23.739Z,35.18
2023-05-06T20:05:51.984Z,35.05
2023-05-06T20:08:20.141Z,35.13
2023-05-06T20:10:50.669Z,35.07
2023-05-06T20:13:19.039Z,35.08
2023-05-06T20:15:47.540Z,35.08
2023-05-06T20:18:15.943Z,35.25
2023-05-06T20:20:44.174Z,35.04
2023-05-06T20:23:12.931Z,35.07
2023-05-06T20:25:41.114Z,35.09
2023-05-06T20:28:10.750Z,35.17
2023-05-06T20:30:39.173Z,35.11
2023-05-06T20:33:07.990Z,35.21
2023-05-06T20:35:38.452Z,35.17
2023-05-06T20:38:06.819Z,35.11
2023-05-06T20:40:35.770Z,35.00
2023-05-06T20:43:05.358Z,35.12
2023-05-06T20:45:35.065Z,35.11
2023-05-06T20:48:03.166Z,35.17
2023-05-06T20:50:31.749Z,35.16
2023-05-06T20:53:02.455Z,35.05
2023-05-06T20:55:30.762Z,35.16
2023-05-06T20:57:59.982Z,35.08
2023-05-06T21:00:28.288Z,35.09
2023-05-06T21:02:58.002Z,35.12
2023-05-06T21:05:26.475Z,35.18
2023-05-06T21:07:54.787Z,35.09
2023-05-06T21:10:23.216Z,35.09
2023-05-06T21:12:51.943Z,35.11
2023-05-06T21:15:20.105Z,35.07
2023-05-06T21:17:48.392Z,35.01
2023-05-06T21:20:19.431Z,35.04
2023-05-06T21:22:48.036Z,35.12
2023-05-06T21:25:16.322Z,35.32
2023-05-06T21:27:45.076Z,35.05
2023-05-06T21:30:13.943Z,35.15
2023-05-06T21:32:42.239Z,35.17
2023-05-06T21:35:11.165Z,35.12
2023-05-06T21:37:41.130Z,35.20
2023-05-06T21:40:10.720Z,35.09
2023-05-06T21:42:38.843Z,35.12
2023-05-06T21:45:08.695Z,35.18
2023-05-06T21:47:37.093Z,35.17
2023-05-06T21:50:05.868Z,35.18
2023-05-06T21:52:34.706Z,35.15
2023-05-06T21:55:04.871Z,35.22
2023-05-06T21:57:33.699Z,35.13
2023-05-06T22:00:02.520Z,35.18
2023-05-06T22:02:30.745Z,35.11
2023-05-06T22:04:58.881Z,35.18
2023-05-06T22:07:28.016Z,35.04
2023-05-06T22:09:56.137Z,35.21
2023-05-06T22:12:25.993Z,35.07
2023-05-06T22:14:54.108Z,35.10
2023-05-06T22:17:22.367Z,35.21
2023-05-06T22:19:51.650Z,35.20
2023-05-06T22:22:21.323Z,35.12
2023-05-06T22:24:49.425Z,35.20
2023-05-06T22:27:17.630Z,35.25
2023-05-06T22:29:47.729Z,35.10
2023-05-06T22:32:15.903Z,35.17
2023-05-06T22:34:44.044Z,35.20
2023-05-06T22:37:12.658Z,35.27
2023-05-06T22:39:40.892Z,35.19
2023-05-06T22:42:09.545Z,35.10
2023-05-06T22:44:37.642Z,35.15
2023-05-06T22:47:07.223Z,35.33
2023-05-06T22:49:36.499Z,35.11
2023-05-06T22:52:04.957Z,35.10
2023-05-06T22:54:33.103Z,35.31
2023-05-06T22:57:01.351Z,35.22
2023-05-06T22:59:29.866Z,35.09
2023-05-06T23:01:58.039Z,35.20
2023-05-06T23:04:27.762Z,35.16
2023-05-06T23:06:57.510Z,35.15
2023-05-06T23:09:25.825Z,35.13
2023-05-06T23:11:53.994Z,35.11
2023-05-06T23:14:22.196Z,35.01
2023-05-06T23:16:51.224Z,35.16
2023-05-06T23:19:21.569Z,35.01
2023-05-06T23:21:51.086Z,35.14
2023-05-06T23:24:19.174Z,35.20
2023-05-06T23:26:47.449Z,35.11
2023-05-06T23:29:15.572Z,35.16
2023-05-06T23:31:44.018Z,35.09
2023-05-06T23:34:12.270Z,35.09
2023-05-06T23:36:40.977Z,35.09
2023-05-06T23:39:12.349Z,35.07
2023-05-06T23:41:41.768Z,34.95
2023-05-06T23:44:10.287Z,35.02
2023-05-06T23:46:38.656Z,35.13
2023-05-06T23:49:07.284Z,35.08
2023-05-06T23:51:35.462Z,35.00
2023-05-06T23:54:03.671Z,35.01
2023-05-06T23:56:33.335Z,34.93
2023-05-06T23:59:01.491Z,34.98
